Time;durP1;ratioP1;P1;durP2;ratioP2;P2;SDS_P1;SDS_P2;PMS_P1;PMS_P2;Temp;Humidity;BMP_temperature;BMP_pressure;BME280_temperature;BME280_humidity;BME280_pressure;Samples;Min_cycle;Max_cycle;Signal;HPM_P1;HPM_P2
2022/03/13 00:00:17;;;;;;;16.75;9.07;;;3.30;76.20;;;;;;4976578;28;20030;-83
2022/03/13 00:02:45;;;;;;;27.23;9.27;;;3.30;75.40;;;;;;4960226;28;20061;-83
2022/03/13 00:05:16;;;;;;;29.52;9.60;;;3.30;74.90;;;;;;4976198;28;20022;-83
2022/03/13 00:07:47;;;;;;;25.40;9.57;;;3.40;74.70;;;;;;4960402;28;20037;-84
2022/03/13 00:10:20;;;;;;;20.65;9.27;;;3.50;74.50;;;;;;4960630;28;20468;-83
2022/03/13 00:12:48;;;;;;;17.55;8.70;;;3.50;73.70;;;;;;4960542;28;20038;-83
2022/03/13 00:15:14;;;;;;;18.13;9.02;;;3.50;73.60;;;;;;4976302;28;20743;-83
2022/03/13 00:17:41;;;;;;;18.10;9.57;;;3.40;74.60;;;;;;4975940;28;20066;-84
2022/03/13 00:20:11;;;;;;;20.58;9.38;;;3.40;73.90;;;;;;4960216;28;20050;-83
2022/03/13 00:22:37;;;;;;;20.98;10.25;;;3.40;73.70;;;;;;4960197;28;20446;-83
2022/03/13 00:25:08;;;;;;;16.90;8.90;;;3.40;73.40;;;;;;4960292;28;20034;-83
2022/03/13 00:27:34;;;;;;;;;;;3.50;72.90;;;;;;4960652;28;20022;-84
2022/03/13 00:30:05;;;;;;;19.20;8.65;;;3.60;72.40;;;;;;4976320;28;19910;-83
2022/03/13 00:32:31;;;;;;;17.27;9.10;;;3.60;72.90;;;;;;4975853;28;20117;-83
2022/03/13 00:34:57;;;;;;;18.27;8.43;;;3.60;72.40;;;;;;4976093;28;20038;-83
2022/03/13 00:37:23;;;;;;;20.30;9.07;;;3.60;72.20;;;;;;4959749;28;20056;-83
2022/03/13 00:39:50;;;;;;;19.83;9.32;;;3.60;72.50;;;;;;4960627;28;20034;-83
2022/03/13 00:42:17;;;;;;;19.73;9.60;;;3.60;72.50;;;;;;4997323;28;20470;-84
2022/03/13 00:44:43;;;;;;;18.83;9.27;;;3.50;72.80;;;;;;4963754;28;20030;-83
2022/03/13 00:47:10;;;;;;;20.77;9.25;;;3.40;72.90;;;;;;4964000;28;20029;-83
2022/03/13 00:49:36;;;;;;;18.15;9.77;;;3.30;72.80;;;;;;4963983;28;20034;-83
2022/03/13 00:52:03;;;;;;;29.05;9.48;;;3.30;72.90;;;;;;4963897;28;20038;-83
2022/03/13 00:54:28;;;;;;;17.52;8.65;;;3.40;72.20;;;;;;4996178;28;20041;-83
2022/03/13 00:56:54;;;;;;;15.27;9.15;;;3.40;72.30;;;;;;4979942;28;20401;-83
2022/03/13 00:59:21;;;;;;;15.45;8.40;;;3.50;72.00;;;;;;4995825;28;20041;-83
2022/03/13 01:01:47;;;;;;;19.77;9.13;;;3.50;71.90;;;;;;4995986;28;20053;-83
2022/03/13 01:04:14;;;;;;;21.23;10.15;;;3.50;71.00;;;;;;4979897;28;20027;-83
2022/03/13 01:06:41;;;;;;;20.45;8.93;;;3.40;71.40;;;;;;4979781;28;20441;-83
2022/03/13 01:09:07;;;;;;;17.10;8.80;;;3.30;71.60;;;;;;4963805;28;20030;-83
2022/03/13 01:11:33;;;;;;;15.30;7.88;;;3.30;71.50;;;;;;4980001;28;20508;-83
2022/03/13 01:13:58;;;;;;;16.92;8.73;;;3.30;71.30;;;;;;4963564;28;20034;-83
2022/03/13 01:16:33;;;;;;;20.08;8.88;;;3.30;71.10;;;;;;4979289;28;20121;-83
2022/03/13 01:19:00;;;;;;;21.75;9.20;;;3.30;71.20;;;;;;4979239;28;20038;-83
2022/03/13 01:21:27;;;;;;;19.73;9.32;;;3.30;70.80;;;;;;4963421;28;20038;-83
2022/03/13 01:24:04;;;;;;;19.13;8.65;;;3.30;70.40;;;;;;4963722;28;20023;-83
2022/03/13 01:26:34;;;;;;;16.95;8.32;;;3.30;70.30;;;;;;4979310;28;20088;-84
2022/03/13 01:29:01;;;;;;;15.20;8.23;;;3.20;70.20;;;;;;4995748;28;20027;-83
2022/03/13 01:31:29;;;;;;;21.63;11.10;;;3.20;70.40;;;;;;4996934;28;20452;-83
2022/03/13 01:33:56;;;;;;;22.20;8.32;;;3.20;69.60;;;;;;4979377;28;20050;-83
2022/03/13 01:36:23;;;;;;;16.88;8.98;;;3.10;70.00;;;;;;4979618;28;20089;-83
2022/03/13 01:38:53;;;;;;;15.95;8.25;;;3.00;70.10;;;;;;4979539;28;20044;-83
2022/03/13 01:41:19;;;;;;;16.25;8.52;;;2.90;71.10;;;;;;4995464;28;20038;-83
2022/03/13 01:43:45;;;;;;;21.52;8.65;;;2.90;70.50;;;;;;4963043;28;20026;-83
2022/03/13 01:46:11;;;;;;;14.93;7.90;;;2.80;70.50;;;;;;4979045;28;20030;-83
2022/03/13 01:49:03;;;;;;;21.85;8.13;;;2.80;70.80;;;;;;4963241;28;20465;-83
2022/03/13 01:51:31;;;;;;;21.27;7.95;;;2.70;71.30;;;;;;4994426;28;20042;-83
2022/03/13 01:53:59;;;;;;;14.95;8.07;;;2.70;70.70;;;;;;4963062;28;20126;-83
2022/03/13 01:56:25;;;;;;;17.00;8.48;;;2.80;70.90;;;;;;4995159;28;20045;-83
2022/03/13 01:58:53;;;;;;;19.20;8.70;;;2.70;70.70;;;;;;4995897;28;20113;-83
2022/03/13 02:01:20;;;;;;;16.98;8.82;;;2.80;70.40;;;;;;4979133;28;20034;-83
2022/03/13 02:03:47;;;;;;;23.48;8.35;;;2.80;70.00;;;;;;4978663;28;20034;-83
2022/03/13 02:06:14;;;;;;;21.20;8.70;;;2.70;70.40;;;;;;4995186;28;20035;-83
2022/03/13 02:08:41;;;;;;;21.90;9.68;;;2.70;70.30;;;;;;4962616;28;20034;-83
2022/03/13 02:11:08;;;;;;;21.88;8.05;;;2.70;70.10;;;;;;4978745;28;20031;-83
2022/03/13 02:13:34;;;;;;;23.77;8.70;;;2.70;70.10;;;;;;4962463;28;20069;-83
2022/03/13 02:16:02;;;;;;;17.58;8.88;;;2.60;70.40;;;;;;4994900;28;20421;-83
2022/03/13 02:18:28;;;;;;;19.88;8.38;;;2.50;71.40;;;;;;4962507;28;20549;-83
2022/03/13 02:20:53;;;;;;;16.55;8.23;;;2.50;70.80;;;;;;4962341;28;20037;-84
2022/03/13 02:23:25;;;;;;;18.40;8.13;;;2.30;71.20;;;;;;4978337;28;20569;-83
2022/03/13 02:26:05;;;;;;;14.68;7.95;;;2.30;71.40;;;;;;4978852;28;20046;-83
2022/03/13 02:28:34;;;;;;;17.50;8.43;;;2.20;71.70;;;;;;4978494;28;20030;-83
2022/03/13 02:31:03;;;;;;;18.23;8.65;;;2.20;72.40;;;;;;4962491;28;20026;-84
2022/03/13 02:33:30;;;;;;;14.52;8.70;;;2.10;72.60;;;;;;4962101;28;20061;-83
2022/03/13 02:35:59;;;;;;;20.08;9.20;;;1.90;73.50;;;;;;4977914;28;20401;-83
2022/03/13 02:38:27;;;;;;;17.83;8.65;;;1.90;73.50;;;;;;4978115;28;20031;-83
2022/03/13 02:40:54;;;;;;;17.58;8.13;;;2.00;72.70;;;;;;4995684;28;20026;-83
2022/03/13 02:43:21;;;;;;;18.15;9.23;;;1.90;72.80;;;;;;4961945;28;20073;-83
2022/03/13 02:45:47;;;;;;;19.55;8.23;;;1.80;73.60;;;;;;4994348;28;20030;-83
2022/03/13 02:48:16;;;;;;;16.42;8.30;;;1.80;73.40;;;;;;4994262;28;20027;-83
2022/03/13 02:50:41;;;;;;;19.77;7.95;;;1.80;73.40;;;;;;4961561;28;20038;-83
2022/03/13 02:53:09;;;;;;;15.77;7.63;;;1.80;73.40;;;;;;4961940;28;20034;-83
2022/03/13 02:55:35;;;;;;;16.52;8.45;;;1.70;73.70;;;;;;4961711;28;20393;-83
2022/03/13 02:58:01;;;;;;;14.40;8.18;;;1.70;74.10;;;;;;4977601;28;20035;-83
2022/03/13 03:00:47;;;;;;;24.63;9.00;;;1.70;74.40;;;;;;4994839;28;20022;-84
2022/03/13 03:03:15;;;;;;;18.25;8.48;;;1.70;74.00;;;;;;4993552;28;20038;-83
2022/03/13 03:05:41;;;;;;;16.33;8.20;;;1.70;74.40;;;;;;4961476;28;20037;-83
2022/03/13 03:08:07;;;;;;;16.15;8.15;;;1.70;75.00;;;;;;4961393;28;20030;-83
2022/03/13 03:10:35;;;;;;;16.55;8.43;;;1.70;74.70;;;;;;4961657;28;20034;-84
2022/03/13 03:13:01;;;;;;;17.25;8.52;;;1.70;74.10;;;;;;4961466;28;20042;-83
2022/03/13 03:15:27;;;;;;;15.73;8.07;;;1.60;74.00;;;;;;4977221;28;20498;-83
2022/03/13 03:17:53;;;;;;;17.38;8.48;;;1.50;75.30;;;;;;4977469;28;20489;-83
2022/03/13 03:20:21;;;;;;;21.00;8.65;;;1.40;75.60;;;;;;4977616;28;20049;-83
2022/03/13 03:22:49;;;;;;;25.13;8.18;;;1.30;75.70;;;;;;4977468;28;20033;-83
2022/03/13 03:25:24;;;;;;;23.63;9.40;;;1.30;75.30;;;;;;4961180;28;20421;-83
2022/03/13 03:27:51;;;;;;;16.58;8.63;;;1.30;76.50;;;;;;4977309;28;20065;-83
2022/03/13 03:30:22;;;;;;;20.25;8.68;;;1.10;76.60;;;;;;4977415;28;20113;-83
2022/03/13 03:32:50;;;;;;;15.25;8.52;;;1.00;76.20;;;;;;4993155;28;20065;-83
2022/03/13 03:35:24;;;;;;;18.08;8.52;;;0.90;77.30;;;;;;4961034;28;20501;-83
2022/03/13 03:37:52;;;;;;;18.48;9.20;;;1.00;77.20;;;;;;4960678;28;20133;-83
2022/03/13 03:40:25;;;;;;;18.95;8.40;;;1.00;77.00;;;;;;4977109;28;20497;-83
2022/03/13 03:42:51;;;;;;;23.10;9.50;;;0.90;77.00;;;;;;4993009;28;20435;-83
2022/03/13 03:45:17;;;;;;;17.75;9.50;;;0.90;77.10;;;;;;4960986;28;20061;-83
2022/03/13 03:47:44;;;;;;;17.48;8.27;;;0.90;77.70;;;;;;4977114;28;20448;-83
2022/03/13 03:50:13;;;;;;;18.13;8.95;;;0.80;77.90;;;;;;4961086;28;20557;-83
2022/03/13 03:52:39;;;;;;;17.38;8.43;;;0.80;77.90;;;;;;4994325;28;20117;-83
2022/03/13 03:55:05;;;;;;;15.15;8.43;;;0.90;78.00;;;;;;4993114;28;20084;-83
2022/03/13 03:57:31;;;;;;;14.23;7.88;;;0.80;77.60;;;;;;4960709;28;20038;-83
2022/03/13 03:59:57;;;;;;;15.32;8.23;;;0.80;77.70;;;;;;4977138;28;20038;-83
2022/03/13 04:02:22;;;;;;;17.42;9.05;;;0.70;77.90;;;;;;4960564;28;20026;-83
2022/03/13 04:04:48;;;;;;;16.52;8.13;;;0.70;78.10;;;;;;4960495;28;20501;-83
2022/03/13 04:07:14;;;;;;;15.93;8.55;;;0.70;77.90;;;;;;4992938;28;20033;-82
2022/03/13 04:09:40;;;;;;;20.73;8.18;;;0.70;77.70;;;;;;4960558;28;20034;-83
2022/03/13 04:12:08;;;;;;;17.45;8.57;;;0.80;78.20;;;;;;4976326;28;20034;-83
2022/03/13 04:14:37;;;;;;;18.60;8.90;;;0.80;78.00;;;;;;4976420;28;20038;-82
2022/03/13 04:17:07;;;;;;;18.98;9.13;;;0.80;77.80;;;;;;4992547;28;20392;-83
2022/03/13 04:19:33;;;;;;;21.40;8.32;;;0.80;78.10;;;;;;4992658;28;20034;-83
2022/03/13 04:21:59;;;;;;;20.63;8.60;;;0.70;78.50;;;;;;4960532;28;20041;-83
2022/03/13 04:24:25;;;;;;;21.15;8.00;;;0.70;78.20;;;;;;4976741;28;20393;-83
2022/03/13 04:26:54;;;;;;;19.77;8.20;;;0.70;78.40;;;;;;4960375;28;20026;-83
2022/03/13 04:29:23;;;;;;;14.35;8.25;;;0.70;77.70;;;;;;4960282;28;20489;-83
2022/03/13 04:31:52;;;;;;;22.13;8.88;;;0.70;78.40;;;;;;4959866;28;20034;-83
2022/03/13 04:34:17;;;;;;;19.67;8.95;;;0.70;78.20;;;;;;4959794;28;20030;-83
2022/03/13 04:36:44;;;;;;;22.30;9.02;;;0.60;79.00;;;;;;4976417;28;20085;-83
2022/03/13 04:39:10;;;;;;;17.98;7.85;;;0.60;78.80;;;;;;4976089;28;20734;-83
2022/03/13 04:41:39;;;;;;;25.58;9.10;;;0.50;78.50;;;;;;4976163;28;20041;-83
2022/03/13 04:44:07;;;;;;;20.63;8.27;;;0.60;79.00;;;;;;4992318;28;20026;-83
2022/03/13 04:46:33;;;;;;;16.17;8.27;;;0.60;79.10;;;;;;4991918;28;20434;-83
2022/03/13 04:48:58;;;;;;;16.50;7.95;;;0.60;78.60;;;;;;4992042;28;20058;-83
2022/03/13 04:51:24;;;;;;;17.08;8.40;;;0.60;78.50;;;;;;4976055;28;20068;-83
2022/03/13 04:53:50;;;;;;;19.05;8.27;;;0.60;78.20;;;;;;4975443;28;20062;-83
2022/03/13 04:56:17;;;;;;;17.90;8.93;;;0.60;78.70;;;;;;4959841;28;20031;-83
2022/03/13 04:58:42;;;;;;;15.80;8.55;;;0.60;78.50;;;;;;4959753;28;20042;-83
2022/03/13 05:01:08;;;;;;;15.15;8.07;;;0.50;78.50;;;;;;4975930;28;20034;-83
2022/03/13 05:03:34;;;;;;;16.95;8.35;;;0.50;78.60;;;;;;4959909;28;20393;-83
2022/03/13 05:06:03;;;;;;;19.88;8.52;;;0.40;78.70;;;;;;4960222;28;20113;-83
2022/03/13 05:08:29;;;;;;;14.82;8.77;;;0.40;78.70;;;;;;4976123;28;20039;-83
2022/03/13 05:10:54;;;;;;;20.40;8.15;;;0.40;78.80;;;;;;4959868;28;20045;-83
2022/03/13 05:13:22;;;;;;;15.88;8.23;;;0.40;79.10;;;;;;4975582;28;20045;-83
2022/03/13 05:15:48;;;;;;;19.30;8.75;;;0.30;79.20;;;;;;4959747;28;20049;-83
2022/03/13 05:18:14;;;;;;;15.25;7.95;;;0.30;79.00;;;;;;4959668;28;20034;-83
2022/03/13 05:20:40;;;;;;;20.10;8.93;;;0.20;79.30;;;;;;4959835;28;20128;-83
2022/03/13 05:23:10;;;;;;;22.00;8.18;;;0.20;79.70;;;;;;4975784;28;20039;-83
2022/03/13 05:25:37;;;;;;;19.33;9.40;;;0.20;79.20;;;;;;4975958;28;20026;-84
2022/03/13 05:28:04;;;;;;;16.33;8.77;;;0.20;79.60;;;;;;4995777;28;20054;-83
2022/03/13 05:30:30;;;;;;;17.95;8.27;;;0.20;79.60;;;;;;4979704;28;20440;-83
2022/03/13 05:32:57;;;;;;;20.42;8.82;;;0.20;79.40;;;;;;4963576;28;20038;-83
2022/03/13 05:35:24;;;;;;;17.67;8.23;;;0.20;79.70;;;;;;4963350;28;20084;-83
2022/03/13 05:37:50;;;;;;;21.58;8.05;;;0.20;79.60;;;;;;4963286;28;20080;-83
2022/03/13 05:40:18;;;;;;;15.48;8.70;;;0.10;80.10;;;;;;4979176;28;20037;-83
2022/03/13 05:42:46;;;;;;;18.92;8.55;;;0.10;80.50;;;;;;4962992;28;20033;-83
2022/03/13 05:45:15;;;;;;;16.90;8.25;;;0.00;80.80;;;;;;4979203;28;20072;-86
2022/03/13 05:48:08;;;;;;;18.77;8.77;;;-0.10;81.60;;;;;;4979808;28;20022;-87
2022/03/13 05:50:34;;;;;;;22.45;8.43;;;-0.10;82.10;;;;;;4979025;28;20478;-86
2022/03/13 05:53:00;;;;;;;17.75;9.23;;;0.00;81.60;;;;;;4978997;28;20045;-86
2022/03/13 05:55:26;;;;;;;22.92;9.20;;;-0.10;82.30;;;;;;4963376;28;20034;-86
2022/03/13 05:57:57;;;;;;;17.20;9.18;;;0.00;82.80;;;;;;4995725;28;20034;-86
2022/03/13 06:00:25;;;;;;;18.58;8.43;;;-0.10;82.70;;;;;;4979796;28;20470;-86
2022/03/13 06:02:51;;;;;;;21.17;7.50;;;-0.10;82.90;;;;;;4995260;28;20397;-86
2022/03/13 06:05:17;;;;;;;16.80;8.27;;;-0.10;82.90;;;;;;4995345;28;20035;-86
2022/03/13 06:07:44;;;;;;;21.20;9.07;;;-0.10;83.10;;;;;;4979311;28;20038;-86
2022/03/13 06:10:12;;;;;;;18.50;8.65;;;0.00;82.80;;;;;;4979542;28;20032;-87
2022/03/13 06:12:47;;;;;;;19.33;9.48;;;0.10;82.50;;;;;;4979372;28;20038;-86
2022/03/13 06:15:14;;;;;;;16.52;8.82;;;0.20;82.40;;;;;;4979240;28;20026;-86
2022/03/13 06:17:48;;;;;;;18.00;7.95;;;0.20;81.60;;;;;;4963007;28;20085;-86
2022/03/13 06:20:16;;;;;;;16.00;8.90;;;0.30;81.80;;;;;;4963244;28;20089;-86
2022/03/13 06:22:43;;;;;;;15.38;8.98;;;0.40;81.70;;;;;;4963230;28;20030;-86
2022/03/13 06:25:11;;;;;;;19.23;9.80;;;0.50;81.20;;;;;;4995288;28;20035;-87
2022/03/13 06:27:38;;;;;;;19.52;8.73;;;0.60;80.10;;;;;;4979043;28;20026;-87
2022/03/13 06:30:12;;;;;;;29.95;12.52;;;0.60;80.80;;;;;;4995298;28;20034;-87
2022/03/13 06:32:39;;;;;;;22.23;10.18;;;0.70;80.50;;;;;;4963109;28;20410;-86
2022/03/13 06:35:05;;;;;;;21.98;9.70;;;0.70;80.40;;;;;;4962919;28;20035;-87
2022/03/13 06:37:31;;;;;;;19.70;9.77;;;0.80;80.30;;;;;;4994655;28;20041;-87
2022/03/13 06:39:57;;;;;;;20.50;9.38;;;0.80;80.80;;;;;;4995178;28;20057;-87
2022/03/13 06:42:23;;;;;;;21.00;9.65;;;0.80;81.00;;;;;;4978806;28;20034;-87
2022/03/13 06:44:48;;;;;;;18.63;8.38;;;0.90;80.40;;;;;;4995094;28;20038;-88
2022/03/13 06:47:14;;;;;;;24.55;9.65;;;1.00;80.70;;;;;;4962247;28;20419;-87
2022/03/13 06:49:40;;;;;;;16.40;9.15;;;1.10;80.10;;;;;;4978460;28;20031;-87
2022/03/13 06:52:06;;;;;;;18.27;8.55;;;1.30;80.20;;;;;;4961923;28;20038;-86
2022/03/13 06:54:32;;;;;;;14.93;8.90;;;1.50;79.50;;;;;;4978096;28;20045;-86
2022/03/13 06:56:58;;;;;;;17.13;9.15;;;1.60;79.80;;;;;;4995312;28;20462;-87
2022/03/13 06:59:23;;;;;;;14.88;8.70;;;1.70;79.20;;;;;;4978119;28;20556;-86
2022/03/13 07:01:49;;;;;;;20.83;8.68;;;1.80;78.90;;;;;;4963515;28;20113;-88
2022/03/13 07:04:15;;;;;;;25.27;9.30;;;1.90;78.40;;;;;;4961693;28;20034;-86
2022/03/13 07:06:41;;;;;;;17.45;9.38;;;2.00;77.40;;;;;;4977806;28;20450;-87
2022/03/13 07:09:09;;;;;;;16.00;9.48;;;2.10;77.20;;;;;;4961662;28;20027;-87
2022/03/13 07:11:34;;;;;;;21.80;9.30;;;2.20;77.40;;;;;;4977843;28;20094;-86
2022/03/13 07:14:07;;;;;;;17.48;9.30;;;2.40;77.40;;;;;;4977733;28;20120;-86
2022/03/13 07:16:33;;;;;;;20.92;9.82;;;2.50;77.00;;;;;;4993743;28;20027;-86
2022/03/13 07:18:58;;;;;;;26.60;10.68;;;2.60;77.50;;;;;;4961550;28;20045;-85
2022/03/13 07:21:24;;;;;;;18.75;9.73;;;2.70;76.40;;;;;;4977804;28;20034;-86
2022/03/13 07:23:50;;;;;;;21.42;9.18;;;2.80;75.90;;;;;;4961531;28;20383;-87
2022/03/13 07:26:16;;;;;;;23.25;10.75;;;2.90;75.60;;;;;;4993651;28;20023;-87
2022/03/13 07:28:42;;;;;;;19.52;10.88;;;3.00;75.30;;;;;;4961529;28;20121;-86
2022/03/13 07:31:07;;;;;;;20.38;9.52;;;3.10;75.50;;;;;;4977622;28;20489;-86
2022/03/13 07:33:33;;;;;;;18.13;10.45;;;3.30;74.90;;;;;;4961324;28;20217;-88
2022/03/13 07:36:00;;;;;;;22.05;10.30;;;3.30;75.70;;;;;;4961513;28;20386;-87
2022/03/13 07:38:38;;;;;;;19.77;10.48;;;3.40;74.80;;;;;;4977409;28;20031;-86
2022/03/13 07:41:03;;;;;;;20.05;10.55;;;3.50;75.50;;;;;;4961132;28;20113;-86
2022/03/13 07:43:30;;;;;;;19.02;10.95;;;3.60;74.60;;;;;;4977314;28;20505;-88
2022/03/13 07:45:55;;;;;;;18.20;10.10;;;3.70;75.00;;;;;;4961077;28;20073;-88
2022/03/13 07:48:21;;;;;;;19.95;10.27;;;3.80;74.40;;;;;;4960620;28;20197;-88
2022/03/13 07:50:47;;;;;;;21.85;11.13;;;3.90;73.80;;;;;;4976234;28;20038;-86
2022/03/13 07:53:13;;;;;;;17.45;9.90;;;4.00;73.90;;;;;;4961049;28;20056;-87
2022/03/13 07:55:38;;;;;;;18.08;10.18;;;4.10;73.60;;;;;;4977205;28;20084;-86
2022/03/13 07:58:04;;;;;;;17.92;9.77;;;4.20;74.70;;;;;;4960848;28;20038;-87
2022/03/13 08:00:30;;;;;;;17.27;9.10;;;4.40;74.80;;;;;;4960877;28;20038;-88
2022/03/13 08:02:55;;;;;;;24.88;9.95;;;4.50;72.60;;;;;;4960814;28;20069;-86
2022/03/13 08:05:21;;;;;;;20.02;10.82;;;4.60;72.40;;;;;;4977045;28;20385;-86
2022/03/13 08:07:55;;;;;;;19.88;10.13;;;4.60;73.20;;;;;;4992960;28;20745;-86
2022/03/13 08:10:23;;;;;;;17.38;9.52;;;4.70;71.90;;;;;;4990780;28;20030;-87
2022/03/13 08:12:50;;;;;;;18.90;9.25;;;4.80;71.70;;;;;;4992814;28;20366;-87
2022/03/13 08:15:16;;;;;;;16.70;9.60;;;4.80;72.10;;;;;;4977219;28;20497;-87
2022/03/13 08:17:42;;;;;;;20.85;11.60;;;4.90;72.10;;;;;;4976683;28;20061;-87
2022/03/13 08:20:09;;;;;;;18.75;10.75;;;4.90;72.20;;;;;;4977007;28;20469;-87
2022/03/13 08:22:35;;;;;;;18.55;10.85;;;5.00;72.50;;;;;;4960571;28;20065;-87
2022/03/13 08:25:01;;;;;;;23.30;11.55;;;5.10;71.40;;;;;;4961356;28;20026;-88
2022/03/13 08:27:27;;;;;;;22.15;10.98;;;5.30;71.70;;;;;;4976712;28;20022;-88
2022/03/13 08:29:53;;;;;;;23.67;11.05;;;5.30;70.70;;;;;;4960801;28;20077;-88
2022/03/13 08:32:18;;;;;;;20.77;11.48;;;5.40;70.50;;;;;;4992867;28;20038;-87
2022/03/13 08:34:45;;;;;;;20.05;10.80;;;5.50;71.50;;;;;;4993850;28;20458;-87
2022/03/13 08:37:12;;;;;;;24.10;11.93;;;5.60;72.30;;;;;;4976419;28;20473;-87
2022/03/13 08:39:38;;;;;;;20.10;10.82;;;5.70;71.40;;;;;;4960206;28;20045;-86
2022/03/13 08:42:05;;;;;;;21.73;11.27;;;5.70;72.20;;;;;;4961982;28;20026;-86
2022/03/13 08:44:31;;;;;;;23.15;12.07;;;5.80;71.80;;;;;;4992597;28;20066;-87
2022/03/13 08:46:58;;;;;;;25.58;12.32;;;5.90;71.70;;;;;;4992665;28;20026;-87
2022/03/13 08:49:24;;;;;;;24.58;12.50;;;6.00;71.90;;;;;;4961157;28;20121;-87
2022/03/13 08:51:50;;;;;;;28.77;13.80;;;6.00;72.30;;;;;;4977265;28;20113;-87
2022/03/13 08:54:20;;;;;;;27.50;13.05;;;6.10;72.90;;;;;;4976793;28;20396;-87
2022/03/13 08:56:48;;;;;;;26.50;13.82;;;6.20;73.20;;;;;;4976896;28;20421;-87
2022/03/13 08:59:20;;;;;;;36.92;15.52;;;6.30;72.80;;;;;;4993045;28;20367;-87
2022/03/13 09:01:48;;;;;;;31.58;16.00;;;6.30;73.80;;;;;;4963387;28;20096;-87
2022/03/13 09:04:14;;;;;;;26.17;14.30;;;6.50;74.00;;;;;;4997087;28;20023;-87
2022/03/13 09:06:40;;;;;;;38.38;15.35;;;6.90;73.70;;;;;;4997193;28;20097;-87
2022/03/13 09:09:08;;;;;;;31.60;16.25;;;7.80;72.30;;;;;;4980220;28;20035;-88
2022/03/13 09:11:34;;;;;;;30.15;14.35;;;9.20;70.90;;;;;;4964473;28;20036;-88
2022/03/13 09:14:09;;;;;;;29.52;16.25;;;10.60;67.40;;;;;;4980878;28;20054;-87
2022/03/13 09:16:37;;;;;;;28.55;17.08;;;10.80;62.80;;;;;;4980820;28;20547;-87
2022/03/13 09:19:04;;;;;;;30.27;16.17;;;10.70;63.50;;;;;;4964468;28;20026;-87
2022/03/13 09:21:31;;;;;;;26.48;15.43;;;10.30;61.50;;;;;;4964096;28;20089;-87
2022/03/13 09:23:57;;;;;;;28.45;15.75;;;9.70;63.30;;;;;;4963917;28;20035;-87
2022/03/13 09:26:23;;;;;;;28.00;13.68;;;9.40;64.40;;;;;;4996353;28;20062;-86
2022/03/13 09:28:49;;;;;;;22.80;14.13;;;9.20;63.50;;;;;;4979816;28;20097;-87
2022/03/13 09:31:14;;;;;;;27.40;15.75;;;9.30;64.80;;;;;;4979811;28;20492;-87
2022/03/13 09:33:40;;;;;;;26.98;15.73;;;9.40;64.60;;;;;;4963878;28;20030;-87
2022/03/13 09:36:06;;;;;;;27.08;13.73;;;9.60;65.60;;;;;;4980029;28;20034;-88
2022/03/13 09:38:32;;;;;;;31.67;13.23;;;9.90;63.20;;;;;;4996374;28;20082;-87
2022/03/13 09:40:58;;;;;;;24.08;13.90;;;9.90;62.00;;;;;;4964001;28;20125;-88
2022/03/13 09:43:23;;;;;;;27.83;15.05;;;10.30;62.40;;;;;;4963582;28;20034;-87
2022/03/13 09:45:49;;;;;;;24.73;14.85;;;10.90;61.10;;;;;;4995444;28;20034;-88
2022/03/13 09:48:18;;;;;;;23.05;14.45;;;10.80;60.50;;;;;;4962778;28;20080;-87
2022/03/13 09:50:44;;;;;;;23.05;14.60;;;11.10;60.50;;;;;;4995718;28;20042;-87
2022/03/13 09:53:11;;;;;;;28.58;14.60;;;11.60;59.80;;;;;;4979531;28;20041;-88
2022/03/13 09:55:38;;;;;;;22.60;14.32;;;12.30;58.80;;;;;;4963247;28;20041;-88
2022/03/13 09:58:08;;;;;;;29.45;15.43;;;12.40;56.60;;;;;;4996738;28;20038;-88
2022/03/13 10:00:35;;;;;;;22.85;13.80;;;12.50;57.40;;;;;;4979268;28;20121;-88
2022/03/13 10:03:05;;;;;;;25.50;14.00;;;12.70;56.20;;;;;;4995413;28;20121;-88
2022/03/13 10:05:43;;;;;;;21.77;14.07;;;13.00;56.20;;;;;;4963012;28;20133;-88
2022/03/13 10:08:10;;;;;;;36.15;15.45;;;13.50;54.80;;;;;;4995073;28;20030;-88
2022/03/13 10:10:50;;;;;;;28.35;15.85;;;13.70;55.30;;;;;;4963028;28;20045;-88
2022/03/13 10:13:39;;;;;;;24.80;13.43;;;13.40;54.30;;;;;;4961552;28;20505;-87
2022/03/13 10:16:06;;;;;;;24.85;14.57;;;13.30;54.40;;;;;;4962651;28;20088;-88
2022/03/13 10:18:32;;;;;;;26.77;16.63;;;13.70;55.20;;;;;;4962206;28;20034;-86
2022/03/13 10:21:18;;;;;;;22.48;15.00;;;14.30;54.00;;;;;;4962611;28;20022;-86
2022/03/13 10:23:47;;;;;;;23.70;15.02;;;14.40;53.90;;;;;;4978219;28;20026;-88
2022/03/13 10:26:16;;;;;;;24.52;15.27;;;13.90;54.10;;;;;;4962043;28;20065;-87
2022/03/13 10:28:42;;;;;;;26.10;15.65;;;13.40;55.30;;;;;;4978254;28;20041;-87
2022/03/13 10:31:13;;;;;;;28.67;15.25;;;12.80;56.70;;;;;;4978152;28;20117;-87
2022/03/13 10:33:42;;;;;;;39.27;16.77;;;12.90;57.00;;;;;;4961759;28;20034;-88
2022/03/13 10:36:24;;;;;;;29.85;17.00;;;13.30;57.70;;;;;;4978153;28;20492;-87
2022/03/13 10:38:50;;;;;;;31.70;17.50;;;13.30;56.60;;;;;;4962152;28;20117;-88
2022/03/13 10:41:17;;;;;;;30.45;18.10;;;13.70;56.00;;;;;;4962526;28;20058;-87
2022/03/13 10:43:52;;;;;;;30.40;16.65;;;13.90;56.20;;;;;;4962237;28;20073;-88
2022/03/13 10:46:30;;;;;;;24.95;16.63;;;14.10;56.40;;;;;;4978374;28;20076;-88
2022/03/13 10:48:58;;;;;;;28.77;16.48;;;14.50;56.30;;;;;;4993785;28;20500;-88
2022/03/13 10:51:47;;;;;;;28.08;17.25;;;14.40;55.30;;;;;;4961978;28;20038;-88
2022/03/13 10:54:31;;;;;;;32.88;18.10;;;14.10;56.10;;;;;;4961920;28;20042;-88
2022/03/13 10:57:13;;;;;;;32.15;18.65;;;14.80;56.90;;;;;;4977870;28;20037;-87
2022/03/13 10:59:43;;;;;;;36.97;19.60;;;15.30;55.00;;;;;;4961789;28;20552;-87
2022/03/13 11:02:23;;;;;;;29.73;17.67;;;15.30;54.90;;;;;;4995831;28;20027;-87
2022/03/13 11:04:55;;;;;;;29.70;18.00;;;15.10;54.80;;;;;;4962248;28;20078;-87
2022/03/13 11:07:21;;;;;;;34.35;19.83;;;15.10;55.80;;;;;;4995451;28;20066;-87
2022/03/13 11:09:47;;;;;;;35.08;19.80;;;15.40;55.20;;;;;;4977682;28;20030;-87
2022/03/13 11:12:19;;;;;;;37.42;22.20;;;15.70;54.80;;;;;;4977404;28;20109;-87
2022/03/13 11:14:46;;;;;;;;;;;15.50;54.30;;;;;;4978252;28;20034;-86
2022/03/13 11:17:12;;;;;;;41.65;23.95;;;15.00;55.00;;;;;;4977760;28;19933;-87
2022/03/13 11:19:39;;;;;;;35.92;20.58;;;15.40;55.30;;;;;;4961432;28;20038;-87
2022/03/13 11:22:09;;;;;;;40.75;19.55;;;15.40;53.60;;;;;;4961491;28;20061;-87
2022/03/13 11:24:36;;;;;;;34.17;19.98;;;15.40;55.60;;;;;;4960422;28;20026;-88
2022/03/13 11:27:08;;;;;;;33.10;20.33;;;15.70;54.10;;;;;;4993479;28;20054;-87
2022/03/13 11:29:45;;;;;;;30.55;18.23;;;16.30;54.90;;;;;;4961402;28;20030;-88
2022/03/13 11:32:29;;;;;;;32.67;19.58;;;16.40;52.80;;;;;;4977827;28;20042;-88
2022/03/13 11:35:13;;;;;;;31.05;19.23;;;15.50;53.80;;;;;;4977349;28;20037;-88
2022/03/13 11:37:44;;;;;;;31.58;20.10;;;15.80;54.50;;;;;;4977174;28;20073;-86
2022/03/13 11:40:12;;;;;;;32.33;20.95;;;15.70;53.70;;;;;;4979113;28;20042;-86
2022/03/13 11:42:51;;;;;;;33.50;20.35;;;15.80;52.80;;;;;;4978556;28;20437;-86
2022/03/13 11:45:35;;;;;;;34.28;20.05;;;15.50;53.30;;;;;;4961622;28;20066;-86
2022/03/13 11:48:14;;;;;;;32.72;18.60;;;15.90;53.50;;;;;;4994772;28;20041;-86
2022/03/13 11:51:02;;;;;;;32.55;19.48;;;16.50;52.90;;;;;;4976948;28;20501;-86
2022/03/13 11:53:48;;;;;;;29.75;19.20;;;16.20;52.10;;;;;;4961181;28;20482;-87
2022/03/13 11:56:26;;;;;;;32.72;19.58;;;15.80;53.30;;;;;;4993282;28;20126;-88
2022/03/13 11:59:15;;;;;;;31.27;19.30;;;15.60;53.90;;;;;;4994721;28;20088;-87
2022/03/13 12:01:42;;;;;;;34.25;20.73;;;15.00;54.60;;;;;;4994148;28;20113;-87
2022/03/13 12:04:09;;;;;;;37.13;21.90;;;15.30;55.00;;;;;;4994068;28;20120;-87
2022/03/13 12:06:48;;;;;;;37.67;21.10;;;14.90;55.20;;;;;;4977384;28;20034;-87
2022/03/13 12:09:19;;;;;;;36.30;21.42;;;15.10;55.60;;;;;;4962186;28;20031;-87
2022/03/13 12:11:50;;;;;;;39.17;18.92;;;15.10;55.60;;;;;;4977173;28;20026;-87
2022/03/13 12:14:18;;;;;;;32.53;19.77;;;15.00;54.80;;;;;;4993732;28;20473;-87
2022/03/13 12:16:46;;;;;;;35.28;19.85;;;15.20;56.30;;;;;;4977244;28;20385;-88
2022/03/13 12:19:15;;;;;;;33.13;19.23;;;15.50;55.20;;;;;;4977197;28;20031;-87
2022/03/13 12:21:45;;;;;;;32.05;19.33;;;16.20;54.60;;;;;;4961033;28;20030;-87
2022/03/13 12:24:15;;;;;;;29.80;18.23;;;16.10;53.60;;;;;;4994431;28;20794;-87
2022/03/13 12:26:42;;;;;;;39.08;19.92;;;16.10;54.20;;;;;;4993048;28;20041;-87
2022/03/13 12:29:12;;;;;;;30.00;18.08;;;16.50;54.10;;;;;;4960664;28;20085;-88
2022/03/13 12:31:40;;;;;;;30.05;18.38;;;16.80;53.20;;;;;;4960959;28;20124;-87
2022/03/13 12:34:06;;;;;;;32.60;18.20;;;16.00;53.30;;;;;;4976283;28;20037;-88
2022/03/13 12:36:40;;;;;;;28.55;17.05;;;16.10;54.10;;;;;;4993495;28;20409;-88
2022/03/13 12:39:14;;;;;;;29.55;18.35;;;16.50;53.30;;;;;;4994232;28;20548;-88
2022/03/13 12:41:44;;;;;;;30.08;18.13;;;16.80;53.40;;;;;;4977023;28;20034;-88
2022/03/13 12:44:15;;;;;;;28.83;17.75;;;16.50;52.70;;;;;;4960143;28;20039;-88
2022/03/13 12:46:57;;;;;;;26.00;18.10;;;16.00;54.60;;;;;;4992653;28;20124;-88